OIBK

Kish International Airport

Kish Island, Iran
TAF OIBK 141730Z 1418/1524 05004MPS 7000 NSC
Issued Valid From Valid To
Dec-14 @ 17:30 UTC
(5 hours ago)
Dec-14 @ 18:00 UTC
(5 hours ago)
Dec-16 @ 00:00 UTC
(-1 days ago)
Dec-14 @ 18:00 to Dec-16 @ 00:00
TAF OIBK 141730Z 1418/1524 05004MPS 7000 NSC
Wind Visibility Clouds
50° at 8 knots 7,001 meters
  • No significant clouds
TAF OIBK 141730Z 1418/1524 05004MPS 7000 NSC
Issued Dec-14 @ 17:30 UTC
(5 hours ago)
Valid From Dec-14 @ 18:00 UTC
(5 hours ago)
Valid To Dec-16 @ 00:00 UTC
(-1 days ago)
Dec-14 @ 18:00 - Dec-16 @ 00:00
Wind Visibility
50° at 8 knots 7,001 meters
Clouds
  • No significant clouds